sensor_id;sensor_type;location;lat;lon;timestamp;P1;durP1;ratioP1;P2;durP2;ratioP2
1831;SDS011;1680;48.106;11.708;2022-07-29T00:01:31;1.77;;;1.67;;
1831;SDS011;1680;48.106;11.708;2022-07-29T00:03:57;2.90;;;1.83;;
1831;SDS011;1680;48.106;11.708;2022-07-29T00:06:24;2.30;;;1.60;;
1831;SDS011;1680;48.106;11.708;2022-07-29T00:08:52;1.87;;;1.77;;
1831;SDS011;1680;48.106;11.708;2022-07-29T00:11:19;2.70;;;1.63;;
1831;SDS011;1680;48.106;11.708;2022-07-29T00:13:46;2.03;;;1.60;;
1831;SDS011;1680;48.106;11.708;2022-07-29T00:16:12;2.00;;;1.60;;
1831;SDS011;1680;48.106;11.708;2022-07-29T00:18:39;2.00;;;1.90;;
1831;SDS011;1680;48.106;11.708;2022-07-29T00:21:06;2.20;;;1.70;;
1831;SDS011;1680;48.106;11.708;2022-07-29T00:23:32;1.63;;;1.53;;
1831;SDS011;1680;48.106;11.708;2022-07-29T00:26:01;1.87;;;1.70;;
1831;SDS011;1680;48.106;11.708;2022-07-29T00:28:27;1.83;;;1.63;;
1831;SDS011;1680;48.106;11.708;2022-07-29T00:30:54;1.67;;;1.57;;
1831;SDS011;1680;48.106;11.708;2022-07-29T00:33:21;1.80;;;1.70;;
1831;SDS011;1680;48.106;11.708;2022-07-29T00:35:48;1.40;;;1.30;;
1831;SDS011;1680;48.106;11.708;2022-07-29T00:38:15;1.60;;;1.50;;
1831;SDS011;1680;48.106;11.708;2022-07-29T00:40:44;1.50;;;1.40;;
1831;SDS011;1680;48.106;11.708;2022-07-29T00:43:12;1.60;;;1.50;;
1831;SDS011;1680;48.106;11.708;2022-07-29T00:45:39;1.40;;;1.30;;
1831;SDS011;1680;48.106;11.708;2022-07-29T00:48:07;1.40;;;1.30;;
1831;SDS011;1680;48.106;11.708;2022-07-29T00:50:34;1.70;;;1.60;;
1831;SDS011;1680;48.106;11.708;2022-07-29T00:53:01;1.30;;;1.20;;
1831;SDS011;1680;48.106;11.708;2022-07-29T00:55:29;2.40;;;1.47;;
1831;SDS011;1680;48.106;11.708;2022-07-29T00:57:56;2.07;;;1.43;;
1831;SDS011;1680;48.106;11.708;2022-07-29T01:00:27;2.13;;;1.50;;
1831;SDS011;1680;48.106;11.708;2022-07-29T01:02:54;1.60;;;1.50;;
1831;SDS011;1680;48.106;11.708;2022-07-29T01:05:22;1.60;;;1.50;;
1831;SDS011;1680;48.106;11.708;2022-07-29T01:07:53;1.60;;;1.50;;
1831;SDS011;1680;48.106;11.708;2022-07-29T01:10:20;1.77;;;1.67;;
1831;SDS011;1680;48.106;11.708;2022-07-29T01:12:49;1.70;;;1.60;;
1831;SDS011;1680;48.106;11.708;2022-07-29T01:15:17;2.87;;;1.70;;
1831;SDS011;1680;48.106;11.708;2022-07-29T01:17:46;2.00;;;1.80;;
1831;SDS011;1680;48.106;11.708;2022-07-29T01:20:20;2.00;;;1.90;;
1831;SDS011;1680;48.106;11.708;2022-07-29T01:23:07;1.80;;;1.70;;
1831;SDS011;1680;48.106;11.708;2022-07-29T01:25:45;2.00;;;1.80;;
1831;SDS011;1680;48.106;11.708;2022-07-29T01:31:28;2.70;;;1.93;;
1831;SDS011;1680;48.106;11.708;2022-07-29T01:34:02;2.00;;;1.90;;
1831;SDS011;1680;48.106;11.708;2022-07-29T01:36:32;1.90;;;1.80;;
1831;SDS011;1680;48.106;11.708;2022-07-29T01:39:05;1.87;;;1.77;;
1831;SDS011;1680;48.106;11.708;2022-07-29T01:41:35;2.60;;;2.27;;
1831;SDS011;1680;48.106;11.708;2022-07-29T01:44:10;1.80;;;1.70;;
1831;SDS011;1680;48.106;11.708;2022-07-29T01:46:41;2.20;;;2.00;;
1831;SDS011;1680;48.106;11.708;2022-07-29T01:49:13;2.07;;;1.97;;
1831;SDS011;1680;48.106;11.708;2022-07-29T01:51:43;2.00;;;1.90;;
1831;SDS011;1680;48.106;11.708;2022-07-29T01:54:14;2.90;;;1.87;;
1831;SDS011;1680;48.106;11.708;2022-07-29T01:56:47;1.83;;;1.73;;
1831;SDS011;1680;48.106;11.708;2022-07-29T01:59:17;1.90;;;1.70;;
1831;SDS011;1680;48.106;11.708;2022-07-29T02:01:45;1.67;;;1.57;;
1831;SDS011;1680;48.106;11.708;2022-07-29T02:04:14;1.90;;;1.80;;
1831;SDS011;1680;48.106;11.708;2022-07-29T02:06:42;1.67;;;1.57;;
1831;SDS011;1680;48.106;11.708;2022-07-29T02:09:12;5.57;;;1.80;;
1831;SDS011;1680;48.106;11.708;2022-07-29T02:11:41;2.10;;;1.90;;
1831;SDS011;1680;48.106;11.708;2022-07-29T02:14:13;2.10;;;1.80;;
1831;SDS011;1680;48.106;11.708;2022-07-29T02:16:43;4.53;;;1.60;;
1831;SDS011;1680;48.106;11.708;2022-07-29T02:19:11;1.80;;;1.70;;
1831;SDS011;1680;48.106;11.708;2022-07-29T02:21:40;2.13;;;1.70;;
1831;SDS011;1680;48.106;11.708;2022-07-29T02:24:09;2.80;;;1.83;;
1831;SDS011;1680;48.106;11.708;2022-07-29T02:26:38;2.20;;;1.70;;
1831;SDS011;1680;48.106;11.708;2022-07-29T02:29:07;2.10;;;2.00;;
1831;SDS011;1680;48.106;11.708;2022-07-29T02:31:36;1.80;;;1.70;;
1831;SDS011;1680;48.106;11.708;2022-07-29T02:34:06;1.53;;;1.43;;
1831;SDS011;1680;48.106;11.708;2022-07-29T02:36:34;1.90;;;1.80;;
1831;SDS011;1680;48.106;11.708;2022-07-29T02:39:02;1.70;;;1.60;;
1831;SDS011;1680;48.106;11.708;2022-07-29T02:41:30;1.87;;;1.77;;
1831;SDS011;1680;48.106;11.708;2022-07-29T02:44:05;1.90;;;1.80;;
1831;SDS011;1680;48.106;11.708;2022-07-29T02:46:35;1.93;;;1.83;;
1831;SDS011;1680;48.106;11.708;2022-07-29T02:49:06;2.07;;;1.90;;
1831;SDS011;1680;48.106;11.708;2022-07-29T02:51:40;2.03;;;1.93;;
1831;SDS011;1680;48.106;11.708;2022-07-29T02:54:09;1.80;;;1.70;;
1831;SDS011;1680;48.106;11.708;2022-07-29T02:56:41;2.00;;;1.80;;
1831;SDS011;1680;48.106;11.708;2022-07-29T02:59:10;1.90;;;1.70;;
1831;SDS011;1680;48.106;11.708;2022-07-29T03:01:40;2.40;;;2.20;;
1831;SDS011;1680;48.106;11.708;2022-07-29T03:04:11;1.97;;;1.70;;
1831;SDS011;1680;48.106;11.708;2022-07-29T03:06:38;1.90;;;1.80;;
1831;SDS011;1680;48.106;11.708;2022-07-29T03:09:07;2.37;;;2.17;;
1831;SDS011;1680;48.106;11.708;2022-07-29T03:11:34;2.00;;;1.80;;
1831;SDS011;1680;48.106;11.708;2022-07-29T03:14:01;1.90;;;1.80;;
1831;SDS011;1680;48.106;11.708;2022-07-29T03:16:29;1.90;;;1.80;;
1831;SDS011;1680;48.106;11.708;2022-07-29T03:18:56;3.80;;;1.93;;
1831;SDS011;1680;48.106;11.708;2022-07-29T03:21:24;2.30;;;2.10;;
1831;SDS011;1680;48.106;11.708;2022-07-29T03:23:51;1.83;;;1.73;;
1831;SDS011;1680;48.106;11.708;2022-07-29T03:26:17;1.93;;;1.83;;
1831;SDS011;1680;48.106;11.708;2022-07-29T03:28:45;2.00;;;1.90;;
1831;SDS011;1680;48.106;11.708;2022-07-29T03:31:11;2.00;;;1.90;;
1831;SDS011;1680;48.106;11.708;2022-07-29T03:33:38;1.80;;;1.70;;
1831;SDS011;1680;48.106;11.708;2022-07-29T03:36:05;1.90;;;1.80;;
1831;SDS011;1680;48.106;11.708;2022-07-29T03:38:33;1.90;;;1.80;;
1831;SDS011;1680;48.106;11.708;2022-07-29T03:41:03;2.33;;;2.13;;
1831;SDS011;1680;48.106;11.708;2022-07-29T03:43:34;2.47;;;2.27;;
1831;SDS011;1680;48.106;11.708;2022-07-29T03:46:04;2.07;;;1.97;;
1831;SDS011;1680;48.106;11.708;2022-07-29T03:48:34;2.07;;;1.97;;
1831;SDS011;1680;48.106;11.708;2022-07-29T03:51:05;2.30;;;2.10;;
1831;SDS011;1680;48.106;11.708;2022-07-29T03:53:33;1.87;;;1.77;;
1831;SDS011;1680;48.106;11.708;2022-07-29T03:56:01;2.90;;;2.13;;
1831;SDS011;1680;48.106;11.708;2022-07-29T03:58:29;2.37;;;2.20;;
1831;SDS011;1680;48.106;11.708;2022-07-29T04:00:57;3.50;;;2.27;;
1831;SDS011;1680;48.106;11.708;2022-07-29T04:03:24;3.00;;;2.30;;
1831;SDS011;1680;48.106;11.708;2022-07-29T04:05:58;1.87;;;1.77;;
1831;SDS011;1680;48.106;11.708;2022-07-29T04:08:26;2.20;;;1.90;;
1831;SDS011;1680;48.106;11.708;2022-07-29T04:10:54;2.50;;;2.30;;
1831;SDS011;1680;48.106;11.708;2022-07-29T04:13:21;1.93;;;1.80;;
1831;SDS011;1680;48.106;11.708;2022-07-29T04:15:47;2.60;;;2.00;;
1831;SDS011;1680;48.106;11.708;2022-07-29T04:18:14;2.50;;;2.30;;
1831;SDS011;1680;48.106;11.708;2022-07-29T04:20:41;4.07;;;2.37;;
1831;SDS011;1680;48.106;11.708;2022-07-29T04:23:07;2.40;;;2.30;;
1831;SDS011;1680;48.106;11.708;2022-07-29T04:25:36;2.13;;;2.03;;
1831;SDS011;1680;48.106;11.708;2022-07-29T04:28:05;2.30;;;2.10;;
1831;SDS011;1680;48.106;11.708;2022-07-29T04:30:32;3.57;;;2.23;;
1831;SDS011;1680;48.106;11.708;2022-07-29T04:33:00;2.63;;;2.43;;
1831;SDS011;1680;48.106;11.708;2022-07-29T04:35:27;2.80;;;2.60;;
1831;SDS011;1680;48.106;11.708;2022-07-29T04:37:54;2.30;;;2.10;;
1831;SDS011;1680;48.106;11.708;2022-07-29T04:40:20;2.50;;;2.30;;
1831;SDS011;1680;48.106;11.708;2022-07-29T04:42:47;2.53;;;2.37;;
1831;SDS011;1680;48.106;11.708;2022-07-29T04:45:15;2.40;;;2.20;;
1831;SDS011;1680;48.106;11.708;2022-07-29T04:47:42;2.40;;;2.20;;
1831;SDS011;1680;48.106;11.708;2022-07-29T04:50:09;2.63;;;2.43;;
1831;SDS011;1680;48.106;11.708;2022-07-29T04:52:36;2.53;;;2.33;;
1831;SDS011;1680;48.106;11.708;2022-07-29T04:55:03;2.87;;;2.50;;
1831;SDS011;1680;48.106;11.708;2022-07-29T04:57:30;2.50;;;2.30;;
1831;SDS011;1680;48.106;11.708;2022-07-29T04:59:57;2.27;;;2.07;;
1831;SDS011;1680;48.106;11.708;2022-07-29T05:02:25;2.53;;;2.40;;
1831;SDS011;1680;48.106;11.708;2022-07-29T05:04:52;2.63;;;2.43;;
1831;SDS011;1680;48.106;11.708;2022-07-29T05:07:19;2.90;;;2.70;;
1831;SDS011;1680;48.106;11.708;2022-07-29T05:09:45;2.93;;;2.73;;
1831;SDS011;1680;48.106;11.708;2022-07-29T05:12:12;2.90;;;2.70;;
1831;SDS011;1680;48.106;11.708;2022-07-29T05:14:39;3.43;;;3.13;;
1831;SDS011;1680;48.106;11.708;2022-07-29T05:17:06;3.63;;;3.00;;
1831;SDS011;1680;48.106;11.708;2022-07-29T05:19:34;3.60;;;3.30;;
1831;SDS011;1680;48.106;11.708;2022-07-29T05:22:00;2.90;;;2.70;;
1831;SDS011;1680;48.106;11.708;2022-07-29T05:24:27;3.13;;;2.93;;
1831;SDS011;1680;48.106;11.708;2022-07-29T05:26:54;2.73;;;2.53;;
1831;SDS011;1680;48.106;11.708;2022-07-29T05:29:20;2.73;;;2.53;;
1831;SDS011;1680;48.106;11.708;2022-07-29T05:31:47;2.80;;;2.60;;
1831;SDS011;1680;48.106;11.708;2022-07-29T05:34:13;2.70;;;2.50;;
1831;SDS011;1680;48.106;11.708;2022-07-29T05:36:42;2.70;;;2.50;;
1831;SDS011;1680;48.106;11.708;2022-07-29T05:39:08;3.00;;;2.70;;
1831;SDS011;1680;48.106;11.708;2022-07-29T05:41:35;2.63;;;2.43;;
1831;SDS011;1680;48.106;11.708;2022-07-29T05:44:02;2.60;;;2.40;;
1831;SDS011;1680;48.106;11.708;2022-07-29T05:46:29;2.83;;;2.50;;
1831;SDS011;1680;48.106;11.708;2022-07-29T05:48:56;2.80;;;2.60;;
1831;SDS011;1680;48.106;11.708;2022-07-29T05:51:22;3.10;;;2.90;;
1831;SDS011;1680;48.106;11.708;2022-07-29T05:53:51;2.93;;;2.73;;
1831;SDS011;1680;48.106;11.708;2022-07-29T05:56:17;3.27;;;2.70;;
1831;SDS011;1680;48.106;11.708;2022-07-29T05:58:44;2.97;;;2.70;;
1831;SDS011;1680;48.106;11.708;2022-07-29T06:01:11;2.77;;;2.57;;
1831;SDS011;1680;48.106;11.708;2022-07-29T06:03:37;2.80;;;2.60;;
1831;SDS011;1680;48.106;11.708;2022-07-29T06:06:06;3.40;;;3.10;;
1831;SDS011;1680;48.106;11.708;2022-07-29T06:08:32;3.50;;;3.20;;
1831;SDS011;1680;48.106;11.708;2022-07-29T06:11:01;4.60;;;3.40;;
1831;SDS011;1680;48.106;11.708;2022-07-29T06:13:29;2.80;;;2.60;;
1831;SDS011;1680;48.106;11.708;2022-07-29T06:15:56;10.20;;;3.37;;
1831;SDS011;1680;48.106;11.708;2022-07-29T06:18:23;3.80;;;3.23;;
1831;SDS011;1680;48.106;11.708;2022-07-29T06:20:49;3.50;;;3.10;;
1831;SDS011;1680;48.106;11.708;2022-07-29T06:23:16;3.47;;;2.80;;
1831;SDS011;1680;48.106;11.708;2022-07-29T06:25:43;3.50;;;3.20;;
1831;SDS011;1680;48.106;11.708;2022-07-29T06:28:11;3.73;;;3.33;;
1831;SDS011;1680;48.106;11.708;2022-07-29T06:30:38;4.63;;;3.13;;
1831;SDS011;1680;48.106;11.708;2022-07-29T06:33:04;2.80;;;2.60;;
1831;SDS011;1680;48.106;11.708;2022-07-29T06:35:32;3.47;;;3.17;;
1831;SDS011;1680;48.106;11.708;2022-07-29T06:38:00;3.63;;;2.83;;
1831;SDS011;1680;48.106;11.708;2022-07-29T06:40:26;2.90;;;2.70;;
1831;SDS011;1680;48.106;11.708;2022-07-29T06:43:12;2.67;;;2.47;;
1831;SDS011;1680;48.106;11.708;2022-07-29T06:45:38;2.90;;;2.60;;
1831;SDS011;1680;48.106;11.708;2022-07-29T06:48:06;3.07;;;2.87;;
1831;SDS011;1680;48.106;11.708;2022-07-29T06:50:32;2.50;;;2.30;;
1831;SDS011;1680;48.106;11.708;2022-07-29T06:52:59;4.23;;;3.00;;
1831;SDS011;1680;48.106;11.708;2022-07-29T06:55:26;2.93;;;2.67;;
1831;SDS011;1680;48.106;11.708;2022-07-29T06:57:53;2.87;;;2.67;;
1831;SDS011;1680;48.106;11.708;2022-07-29T07:00:21;2.93;;;2.73;;
1831;SDS011;1680;48.106;11.708;2022-07-29T07:02:47;2.63;;;2.43;;
1831;SDS011;1680;48.106;11.708;2022-07-29T07:05:14;3.20;;;3.00;;
1831;SDS011;1680;48.106;11.708;2022-07-29T07:07:41;3.03;;;2.70;;
1831;SDS011;1680;48.106;11.708;2022-07-29T07:10:08;2.70;;;2.50;;
1831;SDS011;1680;48.106;11.708;2022-07-29T07:12:35;2.60;;;2.40;;
1831;SDS011;1680;48.106;11.708;2022-07-29T07:15:02;3.47;;;3.20;;
1831;SDS011;1680;48.106;11.708;2022-07-29T07:17:30;2.80;;;2.50;;
1831;SDS011;1680;48.106;11.708;2022-07-29T07:19:57;2.80;;;2.60;;
1831;SDS011;1680;48.106;11.708;2022-07-29T07:22:24;2.30;;;2.20;;
1831;SDS011;1680;48.106;11.708;2022-07-29T07:24:50;3.10;;;2.90;;
1831;SDS011;1680;48.106;11.708;2022-07-29T07:27:17;2.53;;;2.33;;
1831;SDS011;1680;48.106;11.708;2022-07-29T07:29:44;2.80;;;2.60;;
1831;SDS011;1680;48.106;11.708;2022-07-29T07:32:10;3.07;;;2.87;;
1831;SDS011;1680;48.106;11.708;2022-07-29T07:34:39;2.50;;;2.30;;
1831;SDS011;1680;48.106;11.708;2022-07-29T07:37:06;2.63;;;2.30;;
1831;SDS011;1680;48.106;11.708;2022-07-29T07:39:33;2.70;;;2.50;;
1831;SDS011;1680;48.106;11.708;2022-07-29T07:42:00;4.43;;;2.43;;
1831;SDS011;1680;48.106;11.708;2022-07-29T07:44:26;2.80;;;2.60;;
1831;SDS011;1680;48.106;11.708;2022-07-29T07:46:53;2.40;;;2.20;;
1831;SDS011;1680;48.106;11.708;2022-07-29T07:49:20;3.40;;;2.57;;
1831;SDS011;1680;48.106;11.708;2022-07-29T07:51:48;2.67;;;2.40;;
1831;SDS011;1680;48.106;11.708;2022-07-29T07:54:15;2.37;;;2.17;;
1831;SDS011;1680;48.106;11.708;2022-07-29T07:56:42;2.50;;;2.37;;
1831;SDS011;1680;48.106;11.708;2022-07-29T07:59:08;1.97;;;1.87;;
1831;SDS011;1680;48.106;11.708;2022-07-29T08:01:35;2.40;;;2.20;;
1831;SDS011;1680;48.106;11.708;2022-07-29T08:04:02;2.47;;;2.27;;
1831;SDS011;1680;48.106;11.708;2022-07-29T08:06:28;2.50;;;2.20;;
1831;SDS011;1680;48.106;11.708;2022-07-29T08:08:56;2.37;;;2.20;;
1831;SDS011;1680;48.106;11.708;2022-07-29T08:11:23;2.67;;;2.13;;
1831;SDS011;1680;48.106;11.708;2022-07-29T08:13:50;2.53;;;2.33;;
1831;SDS011;1680;48.106;11.708;2022-07-29T08:16:17;4.20;;;2.40;;
1831;SDS011;1680;48.106;11.708;2022-07-29T08:18:45;2.47;;;2.27;;
1831;SDS011;1680;48.106;11.708;2022-07-29T08:21:12;2.17;;;2.07;;
1831;SDS011;1680;48.106;11.708;2022-07-29T08:23:39;2.40;;;2.20;;
1831;SDS011;1680;48.106;11.708;2022-07-29T08:26:12;2.60;;;2.40;;
1831;SDS011;1680;48.106;11.708;2022-07-29T08:28:39;2.27;;;2.07;;
1831;SDS011;1680;48.106;11.708;2022-07-29T08:31:09;3.00;;;2.57;;
1831;SDS011;1680;48.106;11.708;2022-07-29T08:33:36;2.67;;;2.47;;
1831;SDS011;1680;48.106;11.708;2022-07-29T08:36:03;2.60;;;2.40;;
1831;SDS011;1680;48.106;11.708;2022-07-29T08:38:30;2.40;;;2.20;;
1831;SDS011;1680;48.106;11.708;2022-07-29T08:40:57;2.40;;;2.30;;
1831;SDS011;1680;48.106;11.708;2022-07-29T08:43:25;2.47;;;2.27;;
1831;SDS011;1680;48.106;11.708;2022-07-29T08:45:53;2.63;;;2.43;;
1831;SDS011;1680;48.106;11.708;2022-07-29T08:48:21;2.50;;;2.30;;
1831;SDS011;1680;48.106;11.708;2022-07-29T08:50:50;2.67;;;2.33;;
1831;SDS011;1680;48.106;11.708;2022-07-29T08:53:20;2.80;;;2.60;;
1831;SDS011;1680;48.106;11.708;2022-07-29T08:55:48;2.50;;;2.30;;
1831;SDS011;1680;48.106;11.708;2022-07-29T08:58:16;3.10;;;2.80;;
1831;SDS011;1680;48.106;11.708;2022-07-29T09:00:46;2.87;;;2.67;;
1831;SDS011;1680;48.106;11.708;2022-07-29T09:03:19;3.10;;;2.90;;
1831;SDS011;1680;48.106;11.708;2022-07-29T09:05:48;2.80;;;2.60;;
1831;SDS011;1680;48.106;11.708;2022-07-29T09:08:16;2.67;;;2.47;;
1831;SDS011;1680;48.106;11.708;2022-07-29T09:10:43;3.90;;;2.73;;
1831;SDS011;1680;48.106;11.708;2022-07-29T09:13:10;2.90;;;2.70;;
1831;SDS011;1680;48.106;11.708;2022-07-29T09:15:37;3.03;;;2.83;;
1831;SDS011;1680;48.106;11.708;2022-07-29T09:18:05;2.80;;;2.60;;
1831;SDS011;1680;48.106;11.708;2022-07-29T09:20:32;2.80;;;2.60;;
1831;SDS011;1680;48.106;11.708;2022-07-29T09:23:12;3.30;;;3.10;;
1831;SDS011;1680;48.106;11.708;2022-07-29T09:25:40;3.10;;;2.90;;
1831;SDS011;1680;48.106;11.708;2022-07-29T09:28:07;3.83;;;3.53;;
1831;SDS011;1680;48.106;11.708;2022-07-29T09:30:34;3.10;;;2.90;;
1831;SDS011;1680;48.106;11.708;2022-07-29T09:33:02;3.57;;;3.27;;
1831;SDS011;1680;48.106;11.708;2022-07-29T09:35:31;3.30;;;3.10;;
1831;SDS011;1680;48.106;11.708;2022-07-29T09:37:58;3.70;;;3.40;;
1831;SDS011;1680;48.106;11.708;2022-07-29T09:40:36;3.47;;;3.17;;
1831;SDS011;1680;48.106;11.708;2022-07-29T09:43:09;3.47;;;3.27;;
1831;SDS011;1680;48.106;11.708;2022-07-29T09:45:36;3.60;;;3.40;;
1831;SDS011;1680;48.106;11.708;2022-07-29T09:48:12;3.50;;;3.30;;
1831;SDS011;1680;48.106;11.708;2022-07-29T09:50:42;4.00;;;3.70;;
1831;SDS011;1680;48.106;11.708;2022-07-29T09:53:11;4.10;;;3.47;;
1831;SDS011;1680;48.106;11.708;2022-07-29T09:55:47;3.63;;;3.33;;
1831;SDS011;1680;48.106;11.708;2022-07-29T09:58:15;3.40;;;3.20;;
1831;SDS011;1680;48.106;11.708;2022-07-29T10:00:43;3.73;;;3.43;;
1831;SDS011;1680;48.106;11.708;2022-07-29T10:03:10;3.57;;;3.37;;
1831;SDS011;1680;48.106;11.708;2022-07-29T10:05:39;3.77;;;3.47;;
1831;SDS011;1680;48.106;11.708;2022-07-29T10:08:08;3.93;;;3.63;;
1831;SDS011;1680;48.106;11.708;2022-07-29T10:10:36;3.57;;;3.30;;
1831;SDS011;1680;48.106;11.708;2022-07-29T10:13:04;3.47;;;3.17;;
1831;SDS011;1680;48.106;11.708;2022-07-29T10:15:34;3.70;;;3.40;;
1831;SDS011;1680;48.106;11.708;2022-07-29T10:18:04;3.53;;;3.33;;
1831;SDS011;1680;48.106;11.708;2022-07-29T10:20:32;3.70;;;3.40;;
1831;SDS011;1680;48.106;11.708;2022-07-29T10:22:59;3.47;;;3.27;;
1831;SDS011;1680;48.106;11.708;2022-07-29T10:25:27;3.70;;;3.40;;
1831;SDS011;1680;48.106;11.708;2022-07-29T10:27:54;3.70;;;3.40;;
1831;SDS011;1680;48.106;11.708;2022-07-29T10:30:22;3.87;;;3.57;;
1831;SDS011;1680;48.106;11.708;2022-07-29T10:35:47;3.47;;;3.27;;
1831;SDS011;1680;48.106;11.708;2022-07-29T10:38:45;3.80;;;3.40;;
1831;SDS011;1680;48.106;11.708;2022-07-29T10:44:27;3.60;;;3.30;;
1831;SDS011;1680;48.106;11.708;2022-07-29T10:46:55;3.43;;;3.23;;
1831;SDS011;1680;48.106;11.708;2022-07-29T10:49:22;3.97;;;3.60;;
1831;SDS011;1680;48.106;11.708;2022-07-29T10:52:02;3.87;;;3.47;;
1831;SDS011;1680;48.106;11.708;2022-07-29T10:54:40;3.90;;;3.60;;
1831;SDS011;1680;48.106;11.708;2022-07-29T10:57:22;4.23;;;3.53;;
1831;SDS011;1680;48.106;11.708;2022-07-29T11:02:55;4.10;;;3.80;;
1831;SDS011;1680;48.106;11.708;2022-07-29T11:05:23;3.50;;;3.20;;
1831;SDS011;1680;48.106;11.708;2022-07-29T11:10:46;4.10;;;3.80;;
1831;SDS011;1680;48.106;11.708;2022-07-29T11:16:12;4.23;;;3.93;;
1831;SDS011;1680;48.106;11.708;2022-07-29T11:21:42;4.20;;;3.90;;
1831;SDS011;1680;48.106;11.708;2022-07-29T11:24:12;8.43;;;4.10;;
1831;SDS011;1680;48.106;11.708;2022-07-29T11:26:39;4.50;;;4.10;;
1831;SDS011;1680;48.106;11.708;2022-07-29T11:29:14;4.10;;;3.80;;
1831;SDS011;1680;48.106;11.708;2022-07-29T11:31:46;4.00;;;3.70;;
1831;SDS011;1680;48.106;11.708;2022-07-29T11:34:17;4.30;;;4.00;;
1831;SDS011;1680;48.106;11.708;2022-07-29T11:39:41;3.57;;;3.27;;
1831;SDS011;1680;48.106;11.708;2022-07-29T11:45:04;4.17;;;3.80;;
1831;SDS011;1680;48.106;11.708;2022-07-29T11:47:36;3.87;;;3.67;;
1831;SDS011;1680;48.106;11.708;2022-07-29T11:50:04;3.70;;;3.50;;
1831;SDS011;1680;48.106;11.708;2022-07-29T11:52:33;3.70;;;3.40;;
1831;SDS011;1680;48.106;11.708;2022-07-29T11:55:03;4.00;;;3.60;;
1831;SDS011;1680;48.106;11.708;2022-07-29T11:57:31;4.60;;;4.30;;
1831;SDS011;1680;48.106;11.708;2022-07-29T12:00:03;3.90;;;3.70;;
1831;SDS011;1680;48.106;11.708;2022-07-29T12:02:39;3.83;;;3.53;;
1831;SDS011;1680;48.106;11.708;2022-07-29T12:05:08;3.90;;;3.60;;
1831;SDS011;1680;48.106;11.708;2022-07-29T12:07:36;4.00;;;3.70;;
1831;SDS011;1680;48.106;11.708;2022-07-29T12:10:04;3.70;;;3.43;;
1831;SDS011;1680;48.106;11.708;2022-07-29T12:12:32;3.40;;;3.10;;
1831;SDS011;1680;48.106;11.708;2022-07-29T12:15:10;4.10;;;3.20;;
1831;SDS011;1680;48.106;11.708;2022-07-29T12:17:38;3.20;;;2.90;;
1831;SDS011;1680;48.106;11.708;2022-07-29T12:20:06;3.80;;;3.50;;
1831;SDS011;1680;48.106;11.708;2022-07-29T12:22:34;3.70;;;3.40;;
1831;SDS011;1680;48.106;11.708;2022-07-29T12:25:05;3.83;;;3.43;;
1831;SDS011;1680;48.106;11.708;2022-07-29T12:27:34;3.20;;;2.90;;
1831;SDS011;1680;48.106;11.708;2022-07-29T12:30:01;3.87;;;3.40;;
1831;SDS011;1680;48.106;11.708;2022-07-29T12:32:32;3.43;;;3.23;;
1831;SDS011;1680;48.106;11.708;2022-07-29T12:35:03;3.43;;;3.13;;
1831;SDS011;1680;48.106;11.708;2022-07-29T12:37:32;3.60;;;3.40;;
1831;SDS011;1680;48.106;11.708;2022-07-29T12:39:59;3.40;;;3.20;;
1831;SDS011;1680;48.106;11.708;2022-07-29T12:42:26;3.60;;;3.30;;
1831;SDS011;1680;48.106;11.708;2022-07-29T12:44:53;3.40;;;3.20;;
1831;SDS011;1680;48.106;11.708;2022-07-29T12:47:20;3.73;;;3.43;;
1831;SDS011;1680;48.106;11.708;2022-07-29T12:49:47;3.30;;;3.10;;
1831;SDS011;1680;48.106;11.708;2022-07-29T12:52:26;4.10;;;3.47;;
1831;SDS011;1680;48.106;11.708;2022-07-29T12:54:53;3.27;;;3.07;;
1831;SDS011;1680;48.106;11.708;2022-07-29T12:57:20;3.50;;;3.30;;
1831;SDS011;1680;48.106;11.708;2022-07-29T12:59:58;4.10;;;3.80;;
1831;SDS011;1680;48.106;11.708;2022-07-29T13:02:25;3.90;;;3.60;;
1831;SDS011;1680;48.106;11.708;2022-07-29T13:04:55;4.00;;;3.70;;
1831;SDS011;1680;48.106;11.708;2022-07-29T13:07:27;3.33;;;3.13;;
1831;SDS011;1680;48.106;11.708;2022-07-29T13:10:09;2.60;;;2.50;;
1831;SDS011;1680;48.106;11.708;2022-07-29T13:12:37;3.33;;;3.03;;
1831;SDS011;1680;48.106;11.708;2022-07-29T13:15:12;3.83;;;2.80;;
1831;SDS011;1680;48.106;11.708;2022-07-29T13:17:40;3.60;;;3.30;;
1831;SDS011;1680;48.106;11.708;2022-07-29T13:20:09;3.30;;;3.10;;
1831;SDS011;1680;48.106;11.708;2022-07-29T13:22:40;3.47;;;2.93;;
1831;SDS011;1680;48.106;11.708;2022-07-29T13:25:08;3.00;;;2.80;;
1831;SDS011;1680;48.106;11.708;2022-07-29T13:27:37;3.23;;;2.80;;
1831;SDS011;1680;48.106;11.708;2022-07-29T13:30:05;3.43;;;3.13;;
1831;SDS011;1680;48.106;11.708;2022-07-29T13:32:33;3.33;;;3.10;;
1831;SDS011;1680;48.106;11.708;2022-07-29T13:35:02;3.60;;;3.30;;
1831;SDS011;1680;48.106;11.708;2022-07-29T13:37:31;3.67;;;3.27;;
1831;SDS011;1680;48.106;11.708;2022-07-29T13:40:00;4.23;;;3.60;;
1831;SDS011;1680;48.106;11.708;2022-07-29T13:42:29;4.10;;;3.80;;
1831;SDS011;1680;48.106;11.708;2022-07-29T13:44:56;3.97;;;3.60;;
1831;SDS011;1680;48.106;11.708;2022-07-29T13:47:23;3.40;;;3.10;;
1831;SDS011;1680;48.106;11.708;2022-07-29T13:49:49;4.23;;;3.83;;
1831;SDS011;1680;48.106;11.708;2022-07-29T13:52:16;5.20;;;3.87;;
1831;SDS011;1680;48.106;11.708;2022-07-29T13:54:43;4.07;;;3.80;;
1831;SDS011;1680;48.106;11.708;2022-07-29T13:57:11;3.83;;;3.53;;
1831;SDS011;1680;48.106;11.708;2022-07-29T13:59:39;4.10;;;3.80;;
1831;SDS011;1680;48.106;11.708;2022-07-29T14:02:07;4.27;;;3.97;;
1831;SDS011;1680;48.106;11.708;2022-07-29T14:04:35;3.90;;;3.60;;
1831;SDS011;1680;48.106;11.708;2022-07-29T14:07:01;4.13;;;3.83;;
1831;SDS011;1680;48.106;11.708;2022-07-29T14:09:28;3.67;;;3.40;;
1831;SDS011;1680;48.106;11.708;2022-07-29T14:11:55;4.17;;;3.87;;
1831;SDS011;1680;48.106;11.708;2022-07-29T14:14:23;3.80;;;3.50;;
1831;SDS011;1680;48.106;11.708;2022-07-29T14:16:50;4.30;;;4.00;;
1831;SDS011;1680;48.106;11.708;2022-07-29T14:19:17;4.30;;;3.90;;
1831;SDS011;1680;48.106;11.708;2022-07-29T14:21:43;3.87;;;3.60;;
1831;SDS011;1680;48.106;11.708;2022-07-29T14:24:10;3.70;;;3.40;;
1831;SDS011;1680;48.106;11.708;2022-07-29T14:26:37;4.10;;;3.70;;
1831;SDS011;1680;48.106;11.708;2022-07-29T14:29:04;4.20;;;3.90;;
1831;SDS011;1680;48.106;11.708;2022-07-29T14:31:32;3.83;;;3.53;;
1831;SDS011;1680;48.106;11.708;2022-07-29T14:33:58;4.17;;;3.77;;
1831;SDS011;1680;48.106;11.708;2022-07-29T14:36:25;3.90;;;3.70;;
1831;SDS011;1680;48.106;11.708;2022-07-29T14:38:52;3.83;;;3.53;;
1831;SDS011;1680;48.106;11.708;2022-07-29T14:41:19;3.60;;;3.30;;
1831;SDS011;1680;48.106;11.708;2022-07-29T14:43:46;4.53;;;4.07;;
1831;SDS011;1680;48.106;11.708;2022-07-29T14:46:13;3.70;;;3.40;;
1831;SDS011;1680;48.106;11.708;2022-07-29T14:48:41;3.73;;;3.53;;
1831;SDS011;1680;48.106;11.708;2022-07-29T14:51:08;4.53;;;3.57;;
1831;SDS011;1680;48.106;11.708;2022-07-29T14:53:35;3.93;;;3.73;;
1831;SDS011;1680;48.106;11.708;2022-07-29T14:56:02;3.80;;;3.60;;
1831;SDS011;1680;48.106;11.708;2022-07-29T14:58:29;3.87;;;3.57;;
1831;SDS011;1680;48.106;11.708;2022-07-29T15:00:56;3.90;;;3.60;;
1831;SDS011;1680;48.106;11.708;2022-07-29T15:03:22;4.10;;;3.80;;
1831;SDS011;1680;48.106;11.708;2022-07-29T15:05:50;3.83;;;3.50;;
1831;SDS011;1680;48.106;11.708;2022-07-29T15:08:17;3.97;;;3.67;;
1831;SDS011;1680;48.106;11.708;2022-07-29T15:10:44;4.93;;;3.87;;
1831;SDS011;1680;48.106;11.708;2022-07-29T15:13:12;3.90;;;3.60;;
1831;SDS011;1680;48.106;11.708;2022-07-29T15:15:39;3.33;;;3.00;;
1831;SDS011;1680;48.106;11.708;2022-07-29T15:18:06;3.20;;;3.00;;
1831;SDS011;1680;48.106;11.708;2022-07-29T15:20:34;3.30;;;3.10;;
1831;SDS011;1680;48.106;11.708;2022-07-29T15:23:02;3.40;;;3.20;;
1831;SDS011;1680;48.106;11.708;2022-07-29T15:25:29;2.97;;;2.57;;
1831;SDS011;1680;48.106;11.708;2022-07-29T15:27:55;3.60;;;3.30;;
1831;SDS011;1680;48.106;11.708;2022-07-29T15:30:24;3.60;;;3.30;;
1831;SDS011;1680;48.106;11.708;2022-07-29T15:32:51;3.63;;;3.33;;
1831;SDS011;1680;48.106;11.708;2022-07-29T15:35:18;5.93;;;3.07;;